createdAt,value
2022-09-21T00:01:07.110Z,100931.64
2022-09-21T00:03:34.150Z,100929.74
2022-09-21T00:06:05.472Z,100930.98
2022-09-21T00:08:32.940Z,100933.95
2022-09-21T00:11:00.560Z,100940.44
2022-09-21T00:13:28.074Z,100943.08
2022-09-21T00:15:55.912Z,100946.42
2022-09-21T00:18:23.767Z,100952.90
2022-09-21T00:20:51.986Z,100952.02
2022-09-21T00:23:19.816Z,100952.86
2022-09-21T00:25:46.865Z,100952.69
2022-09-21T00:28:13.883Z,100959.17
2022-09-21T00:30:41.479Z,100957.64
2022-09-21T00:33:08.282Z,100954.14
2022-09-21T00:35:35.051Z,100955.71
2022-09-21T00:38:03.278Z,100952.38
2022-09-21T00:40:31.443Z,100952.34
2022-09-21T00:43:15.747Z,100950.60
2022-09-21T00:45:46.870Z,100949.71
2022-09-21T00:48:15.035Z,100950.23
2022-09-21T00:50:49.536Z,100951.60
2022-09-21T00:53:16.405Z,100952.63
2022-09-21T00:55:49.483Z,100958.58
2022-09-21T00:58:23.745Z,100960.15
2022-09-21T01:00:51.771Z,100954.90
2022-09-21T01:03:18.601Z,100960.52
2022-09-21T01:05:45.319Z,100958.42
2022-09-21T01:08:14.855Z,100960.35
2022-09-21T01:10:57.274Z,100962.96
2022-09-21T01:13:39.259Z,100961.55
2022-09-21T01:16:17.634Z,100966.11
2022-09-21T01:19:00.587Z,100966.15
2022-09-21T01:21:34.744Z,100969.48
2022-09-21T01:24:07.511Z,100972.62
2022-09-21T01:27:08.273Z,100969.63
2022-09-21T01:29:38.011Z,100971.52
2022-09-21T01:32:17.811Z,100967.80
2022-09-21T01:34:49.072Z,100968.30
2022-09-21T01:37:23.853Z,100968.24
2022-09-21T01:39:57.641Z,100972.06
2022-09-21T01:42:28.152Z,100971.69
2022-09-21T01:44:58.973Z,100971.66
2022-09-21T01:47:30.972Z,100970.96
2022-09-21T01:50:02.060Z,100969.91
2022-09-21T01:52:49.688Z,100975.72
2022-09-21T01:55:27.539Z,100971.14
2022-09-21T01:58:24.106Z,100973.73
2022-09-21T02:00:55.032Z,100971.61
2022-09-21T02:03:34.388Z,100969.60
2022-09-21T02:06:03.631Z,100966.60
2022-09-21T02:08:34.362Z,100971.35
2022-09-21T02:11:02.750Z,100974.69
2022-09-21T02:13:36.831Z,100970.98
2022-09-21T02:16:06.372Z,100973.25
2022-09-21T02:19:21.611Z,100973.60
2022-09-21T02:21:59.109Z,100972.42
2022-09-21T02:24:42.106Z,100973.86
2022-09-21T02:27:17.583Z,100975.80
2022-09-21T02:29:47.307Z,100975.95
2022-09-21T02:32:26.302Z,100979.26
2022-09-21T02:35:02.877Z,100978.20
2022-09-21T02:37:44.564Z,100977.34
2022-09-21T02:40:29.374Z,100979.09
2022-09-21T02:43:01.266Z,100979.95
2022-09-21T02:45:33.877Z,100980.65
2022-09-21T02:48:08.160Z,100979.23
2022-09-21T02:50:45.950Z,100979.95
2022-09-21T02:53:18.638Z,100981.20
2022-09-21T02:55:46.503Z,100981.59
2022-09-21T02:58:15.972Z,100980.02
2022-09-21T03:00:42.785Z,100982.12
2022-09-21T03:03:24.378Z,100982.27
2022-09-21T03:05:53.631Z,100980.87
2022-09-21T03:08:20.787Z,100980.36
2022-09-21T03:10:50.189Z,100974.77
2022-09-21T03:13:18.334Z,100980.90
2022-09-21T03:15:46.073Z,100981.60
2022-09-21T03:18:13.397Z,100985.63
2022-09-21T03:20:45.575Z,100986.15
2022-09-21T03:23:13.106Z,100987.38
2022-09-21T03:25:39.953Z,100985.43
2022-09-21T03:28:06.707Z,100985.26
2022-09-21T03:30:34.922Z,100983.86
2022-09-21T03:33:02.900Z,100983.69
2022-09-21T03:35:29.682Z,100982.82
2022-09-21T03:37:57.477Z,100981.08
2022-09-21T03:40:26.856Z,100983.48
2022-09-21T03:42:55.024Z,100987.48
2022-09-21T03:45:22.207Z,100985.55
2022-09-21T03:47:48.934Z,100989.41
2022-09-21T03:50:15.756Z,100993.61
2022-09-21T03:52:42.540Z,100991.34
2022-09-21T03:55:09.378Z,100993.63
2022-09-21T03:57:37.011Z,100997.64
2022-09-21T04:00:08.183Z,101000.23
2022-09-21T04:02:36.501Z,101002.66
2022-09-21T04:05:04.186Z,101002.42
2022-09-21T04:07:33.938Z,101001.70
2022-09-21T04:10:02.313Z,100997.90
2022-09-21T04:12:29.325Z,100998.27
2022-09-21T04:14:56.082Z,100997.05
2022-09-21T04:17:22.909Z,100997.56
2022-09-21T04:19:49.694Z,100995.63
2022-09-21T04:22:16.532Z,100990.23
2022-09-21T04:24:43.260Z,100987.95
2022-09-21T04:27:11.708Z,100988.83
2022-09-21T04:29:38.511Z,100987.60
2022-09-21T04:32:05.625Z,100994.25
2022-09-21T04:34:32.427Z,100996.53
2022-09-21T04:36:59.343Z,100997.56
2022-09-21T04:39:26.190Z,100994.61
2022-09-21T04:41:52.999Z,100993.24
2022-09-21T04:44:19.863Z,100999.04
2022-09-21T04:46:46.707Z,100994.69
2022-09-21T04:49:13.519Z,100995.21
2022-09-21T04:51:40.321Z,100997.85
2022-09-21T04:54:07.255Z,100998.02
2022-09-21T04:56:34.516Z,100999.94
2022-09-21T04:59:01.212Z,101003.45
2022-09-21T05:01:28.833Z,101005.92
2022-09-21T05:04:01.130Z,101010.31
2022-09-21T05:06:32.901Z,101009.27
2022-09-21T05:09:18.699Z,101012.41
2022-09-21T05:11:45.763Z,101010.84
2022-09-21T05:14:12.686Z,101014.70
2022-09-21T05:16:39.512Z,101018.75
2022-09-21T05:19:07.152Z,101017.56
2022-09-21T05:21:35.797Z,101018.81
2022-09-21T05:24:02.916Z,101017.26
2022-09-21T05:26:29.934Z,101019.02
2022-09-21T05:28:57.018Z,101018.88
2022-09-21T05:31:40.281Z,101019.58
2022-09-21T05:34:36.154Z,101023.80
2022-09-21T05:37:24.348Z,101025.56
2022-09-21T05:39:51.379Z,101027.33
2022-09-21T05:42:18.313Z,101030.27
2022-09-21T05:44:45.311Z,101035.67
2022-09-21T05:47:37.095Z,101037.23
2022-09-21T05:50:48.891Z,101040.73
2022-09-21T05:53:24.690Z,101046.04
2022-09-21T05:56:00.255Z,101046.27
2022-09-21T05:58:53.039Z,101045.92
2022-09-21T06:01:38.970Z,101044.01
2022-09-21T06:04:10.737Z,101048.04
2022-09-21T06:06:38.381Z,101045.95
2022-09-21T06:09:05.108Z,101048.42
2022-09-21T06:11:32.046Z,101050.71
2022-09-21T06:14:01.169Z,101050.73
2022-09-21T06:16:37.030Z,101055.61
2022-09-21T06:19:03.974Z,101052.27
2022-09-21T06:21:30.821Z,101054.36
2022-09-21T06:23:57.944Z,101052.44
2022-09-21T06:26:26.450Z,101051.38
2022-09-21T06:28:53.200Z,101051.19
2022-09-21T06:31:19.957Z,101050.98
2022-09-21T06:33:48.223Z,101047.79
2022-09-21T06:36:16.025Z,101052.66
2022-09-21T06:38:42.798Z,101055.46
2022-09-21T06:41:10.420Z,101054.94
2022-09-21T06:43:37.144Z,101059.66
2022-09-21T06:46:04.459Z,101059.85
2022-09-21T06:48:33.778Z,101057.39
2022-09-21T06:51:03.286Z,101062.86
2022-09-21T06:53:31.911Z,101067.85
2022-09-21T06:56:03.532Z,101067.05
2022-09-21T06:58:33.691Z,101072.40
2022-09-21T07:01:11.965Z,101073.71
2022-09-21T07:03:40.542Z,101075.35
2022-09-21T07:06:08.671Z,101077.36
2022-09-21T07:11:23.538Z,101083.30
2022-09-21T07:13:50.449Z,101090.09
2022-09-21T07:16:18.207Z,101089.29
2022-09-21T07:18:45.467Z,101091.46
2022-09-21T07:21:12.565Z,101091.51
2022-09-21T07:23:39.221Z,101089.79
2022-09-21T07:26:11.961Z,101092.81
2022-09-21T07:28:39.567Z,101093.92
2022-09-21T07:31:15.091Z,101094.35
2022-09-21T07:33:46.025Z,101098.45
2022-09-21T07:36:13.340Z,101096.99
2022-09-21T07:38:43.937Z,101098.81
2022-09-21T07:41:13.628Z,101095.52
2022-09-21T07:43:41.144Z,101096.45
2022-09-21T07:46:12.524Z,101103.30
2022-09-21T07:48:39.590Z,101097.50
2022-09-21T07:51:09.467Z,101099.27
2022-09-21T07:53:37.246Z,101102.27
2022-09-21T07:56:10.115Z,101100.17
2022-09-21T07:58:56.801Z,101103.16
2022-09-21T08:01:24.526Z,101099.52
2022-09-21T08:03:53.704Z,101101.84
2022-09-21T08:06:21.719Z,101100.83
2022-09-21T08:08:53.711Z,101105.05
2022-09-21T08:11:25.401Z,101108.09
2022-09-21T08:13:53.855Z,101109.20
2022-09-21T08:16:20.915Z,101110.86
2022-09-21T08:18:48.006Z,101106.70
2022-09-21T08:21:14.783Z,101105.73
2022-09-21T08:23:42.512Z,101107.20
2022-09-21T08:26:20.851Z,101106.20
2022-09-21T08:28:52.351Z,101105.17
2022-09-21T08:31:21.374Z,101104.67
2022-09-21T08:33:49.333Z,101105.44
2022-09-21T08:36:16.615Z,101104.61
2022-09-21T08:38:43.644Z,101099.17
2022-09-21T08:41:14.330Z,101106.58
2022-09-21T08:43:44.254Z,101107.80
2022-09-21T08:46:18.419Z,101110.25
2022-09-21T08:49:10.374Z,101111.65
2022-09-21T08:51:49.276Z,101116.05
2022-09-21T08:54:25.168Z,101115.70
2022-09-21T08:57:06.327Z,101112.52
2022-09-21T08:59:34.800Z,101120.08
2022-09-21T09:02:22.474Z,101120.95
2022-09-21T09:05:11.209Z,101122.54
2022-09-21T09:07:56.514Z,101120.58
2022-09-21T09:10:41.016Z,101118.82
2022-09-21T09:13:07.697Z,101122.86
2022-09-21T09:15:58.465Z,101118.84
2022-09-21T09:18:34.655Z,101117.81
2022-09-21T09:21:16.539Z,101118.02
2022-09-21T09:23:59.883Z,101117.70
2022-09-21T09:26:34.500Z,101115.84
2022-09-21T09:29:24.429Z,101114.13
2022-09-21T09:31:54.355Z,101118.39
2022-09-21T09:34:44.497Z,101126.30
2022-09-21T09:37:14.301Z,101128.02
2022-09-21T09:39:42.552Z,101129.56
2022-09-21T09:42:37.055Z,101132.98
2022-09-21T09:45:54.680Z,101130.83
2022-09-21T09:48:23.910Z,101129.44
2022-09-21T09:50:50.666Z,101128.45
2022-09-21T09:53:21.823Z,101128.85
2022-09-21T09:55:54.119Z,101137.81
2022-09-21T09:58:30.478Z,101134.80
2022-09-21T10:00:58.951Z,101135.49
2022-09-21T10:03:27.355Z,101138.63
2022-09-21T10:05:55.060Z,101139.48
2022-09-21T10:08:46.798Z,101136.83
2022-09-21T10:11:15.777Z,101134.02
2022-09-21T10:13:48.547Z,101131.06
2022-09-21T10:16:21.596Z,101132.38
2022-09-21T10:19:00.827Z,101134.54
2022-09-21T10:21:35.324Z,101137.02
2022-09-21T10:24:02.181Z,101140.70
2022-09-21T10:26:36.431Z,101146.32
2022-09-21T10:29:29.747Z,101142.95
2022-09-21T10:31:58.663Z,101141.88
2022-09-21T10:34:29.671Z,101141.89
2022-09-21T10:36:59.469Z,101137.68
2022-09-21T10:39:32.785Z,101135.05
2022-09-21T10:42:15.784Z,101139.11
2022-09-21T10:44:45.570Z,101139.31
2022-09-21T10:47:16.721Z,101135.64
2022-09-21T10:49:49.858Z,101134.75
2022-09-21T10:52:21.128Z,101134.05
2022-09-21T10:54:51.933Z,101133.17
2022-09-21T10:57:22.023Z,101125.98
2022-09-21T10:59:49.010Z,101128.11
2022-09-21T11:02:29.290Z,101132.19
2022-09-21T11:05:21.287Z,101133.63
2022-09-21T11:07:56.774Z,101133.63
2022-09-21T11:10:41.876Z,101136.81
2022-09-21T11:13:09.552Z,101136.27
2022-09-21T11:16:00.920Z,101133.27
2022-09-21T11:18:48.736Z,101131.14
2022-09-21T11:21:46.329Z,101128.14
2022-09-21T11:24:33.358Z,101127.96
2022-09-21T11:27:04.977Z,101132.38
2022-09-21T11:29:56.557Z,101129.38
2022-09-21T11:32:45.117Z,101128.19
2022-09-21T11:35:26.450Z,101130.86
2022-09-21T11:38:43.465Z,101132.10
2022-09-21T11:41:13.382Z,101127.73
2022-09-21T11:44:03.657Z,101130.03
2022-09-21T11:46:58.452Z,101127.23
2022-09-21T11:49:33.873Z,101131.98
2022-09-21T11:52:38.540Z,101136.03
2022-09-21T11:55:15.604Z,101138.48
2022-09-21T11:57:55.051Z,101140.43
2022-09-21T12:00:22.790Z,101138.83
2022-09-21T12:03:14.973Z,101142.86
2022-09-21T12:05:56.810Z,101140.55
2022-09-21T12:08:29.438Z,101137.56
2022-09-21T12:11:20.697Z,101137.02
2022-09-21T12:14:14.895Z,101134.39
2022-09-21T12:16:52.705Z,101133.67
2022-09-21T12:19:34.125Z,101130.70
2022-09-21T12:22:25.561Z,101128.77
2022-09-21T12:24:57.802Z,101124.75
2022-09-21T12:27:46.710Z,101128.27
2022-09-21T12:30:19.411Z,101129.00
2022-09-21T12:32:52.570Z,101131.99
2022-09-21T12:35:27.869Z,101133.57
2022-09-21T12:38:05.465Z,101135.86
2022-09-21T12:40:50.877Z,101133.73
2022-09-21T12:43:36.491Z,101130.92
2022-09-21T12:46:14.079Z,101126.88
2022-09-21T12:48:45.063Z,101126.70
2022-09-21T12:51:17.683Z,101123.02
2022-09-21T12:53:51.408Z,101124.77
2022-09-21T12:56:43.230Z,101124.58
2022-09-21T12:59:30.542Z,101128.11
2022-09-21T13:02:12.574Z,101127.05
2022-09-21T13:04:45.174Z,101129.50
2022-09-21T13:07:32.847Z,101127.23
2022-09-21T13:10:07.544Z,101124.93
2022-09-21T13:12:44.372Z,101127.58
2022-09-21T13:15:23.614Z,101127.57
2022-09-21T13:18:17.732Z,101129.52
2022-09-21T13:20:45.661Z,101126.00
2022-09-21T13:23:17.141Z,101127.05
2022-09-21T13:25:59.981Z,101132.16
2022-09-21T13:29:00.072Z,101130.59
2022-09-21T13:31:41.489Z,101125.13
2022-09-21T13:34:50.324Z,101125.83
2022-09-21T13:37:20.038Z,101126.01
2022-09-21T13:40:02.366Z,101130.92
2022-09-21T13:42:32.496Z,101130.05
2022-09-21T13:45:00.299Z,101131.64
2022-09-21T13:47:33.485Z,101132.86
2022-09-21T13:50:09.949Z,101124.93
2022-09-21T13:52:47.640Z,101124.59
2022-09-21T13:55:52.634Z,101122.46
2022-09-21T13:58:32.272Z,101124.24
2022-09-21T14:01:05.747Z,101124.24
2022-09-21T14:03:40.393Z,101121.42
2022-09-21T14:06:11.937Z,101120.36
2022-09-21T14:08:54.398Z,101120.55
2022-09-21T14:11:28.925Z,101116.18
2022-09-21T14:14:09.544Z,101121.45
2022-09-21T14:16:39.301Z,101112.64
2022-09-21T14:19:14.909Z,101113.18
2022-09-21T14:22:04.544Z,101112.28
2022-09-21T14:24:50.922Z,101116.00
2022-09-21T14:27:42.307Z,101109.47
2022-09-21T14:30:28.636Z,101112.48
2022-09-21T14:33:32.682Z,101118.11
2022-09-21T14:36:06.846Z,101119.68
2022-09-21T14:38:47.703Z,101117.56
2022-09-21T14:41:20.293Z,101115.44
2022-09-21T14:43:53.998Z,101118.25
2022-09-21T14:46:48.859Z,101117.71
2022-09-21T14:49:32.326Z,101119.30
2022-09-21T14:52:31.881Z,101117.54
2022-09-21T14:55:05.245Z,101114.36
2022-09-21T14:57:53.161Z,101119.81
2022-09-21T15:00:31.298Z,101118.40
2022-09-21T15:03:18.380Z,101115.91
2022-09-21T15:05:53.074Z,101118.73
2022-09-21T15:08:50.626Z,101119.06
2022-09-21T15:11:28.751Z,101119.05
2022-09-21T15:14:16.388Z,101118.34
2022-09-21T15:16:46.755Z,101118.00
2022-09-21T15:19:34.657Z,101122.04
2022-09-21T15:22:22.317Z,101119.75
2022-09-21T15:24:50.721Z,101126.43
2022-09-21T15:27:19.626Z,101124.34
2022-09-21T15:29:53.255Z,101121.88
2022-09-21T15:32:29.148Z,101125.20
2022-09-21T15:35:06.132Z,101128.18
2022-09-21T15:37:39.093Z,101129.73
2022-09-21T15:40:23.488Z,101128.85
2022-09-21T15:43:20.086Z,101126.02
2022-09-21T15:45:55.759Z,101129.88
2022-09-21T15:48:24.066Z,101131.44
2022-09-21T15:50:57.546Z,101131.61
2022-09-21T15:53:32.568Z,101133.38
2022-09-21T15:56:01.059Z,101135.84
2022-09-21T15:58:36.758Z,101140.23
2022-09-21T16:01:13.466Z,101141.44
2022-09-21T16:03:41.361Z,101142.65
2022-09-21T16:06:27.471Z,101140.53
2022-09-21T16:08:54.719Z,101141.22
2022-09-21T16:11:25.788Z,101142.96
2022-09-21T16:14:35.828Z,101140.11
2022-09-21T16:17:09.129Z,101139.88
2022-09-21T16:19:43.066Z,101147.06
2022-09-21T16:22:15.716Z,101149.70
2022-09-21T16:25:01.188Z,101150.05
2022-09-21T16:27:31.517Z,101149.84
2022-09-21T16:30:00.524Z,101155.45
2022-09-21T16:32:31.503Z,101155.77
2022-09-21T16:35:30.750Z,101155.60
2022-09-21T16:37:58.411Z,101156.43
2022-09-21T16:40:26.398Z,101162.06
2022-09-21T16:42:53.819Z,101166.96
2022-09-21T16:45:28.000Z,101160.09
2022-09-21T16:47:55.733Z,101161.50
2022-09-21T16:50:23.948Z,101158.86
2022-09-21T16:52:52.271Z,101157.45
2022-09-21T16:55:19.672Z,101163.60
2022-09-21T16:57:48.336Z,101160.95
2022-09-21T17:00:21.509Z,101161.80
2022-09-21T17:04:10.621Z,101162.30
2022-09-21T17:06:39.465Z,101160.84
2022-09-21T17:09:48.184Z,101165.94
2022-09-21T17:12:17.883Z,101171.55
2022-09-21T17:14:47.314Z,101179.27
2022-09-21T17:17:22.602Z,101178.90
2022-09-21T17:19:54.084Z,101178.13
2022-09-21T17:22:24.599Z,101187.05
2022-09-21T17:25:12.304Z,101188.62
2022-09-21T17:27:41.819Z,101186.69
2022-09-21T17:30:13.923Z,101189.15
2022-09-21T17:32:42.683Z,101191.44
2022-09-21T17:35:32.414Z,101192.16
2022-09-21T17:38:00.104Z,101190.61
2022-09-21T17:40:29.625Z,101190.26
2022-09-21T17:43:06.385Z,101191.86
2022-09-21T17:46:06.662Z,101186.24
2022-09-21T17:48:40.102Z,101185.89
2022-09-21T17:51:07.753Z,101189.22
2022-09-21T17:53:36.669Z,101193.24
2022-09-21T17:56:40.809Z,101189.55
2022-09-21T17:59:31.901Z,101189.89
2022-09-21T18:02:00.800Z,101189.85
2022-09-21T18:04:34.497Z,101193.72
2022-09-21T18:07:04.257Z,101191.61
2022-09-21T18:09:35.191Z,101190.55
2022-09-21T18:12:03.717Z,101193.39
2022-09-21T18:14:52.549Z,101199.00
2022-09-21T18:18:02.076Z,101191.77
2022-09-21T18:20:29.013Z,101196.82
2022-09-21T18:23:19.179Z,101197.13
2022-09-21T18:29:50.945Z,101201.93
2022-09-21T18:33:00.458Z,101204.71
2022-09-21T18:35:42.203Z,101201.73
2022-09-21T18:38:29.348Z,101202.25
2022-09-21T18:41:31.081Z,101198.56
2022-09-21T18:44:08.727Z,101197.48
2022-09-21T18:46:52.049Z,101196.92
2022-09-21T18:49:57.784Z,101198.30
2022-09-21T18:52:43.064Z,101195.45
2022-09-21T18:55:26.447Z,101199.11
2022-09-21T18:57:55.345Z,101196.80
2022-09-21T19:00:30.963Z,101198.54
2022-09-21T19:03:16.367Z,101196.23
2022-09-21T19:06:07.309Z,101194.46
2022-09-21T19:08:53.225Z,101201.83
2022-09-21T19:11:31.308Z,101200.02
2022-09-21T19:14:29.300Z,101195.60
2022-09-21T19:17:16.626Z,101202.94
2022-09-21T19:19:55.586Z,101199.58
2022-09-21T19:22:27.767Z,101199.89
2022-09-21T19:25:28.219Z,101197.95
2022-09-21T19:28:09.643Z,101194.23
2022-09-21T19:30:38.447Z,101192.63
2022-09-21T19:33:45.485Z,101186.77
2022-09-21T19:36:09.276Z,101187.56
2022-09-21T19:38:37.340Z,101189.08
2022-09-21T19:41:17.190Z,101181.85
2022-09-21T19:43:56.765Z,101188.66
2022-09-21T19:46:44.225Z,101190.55
2022-09-21T19:49:18.619Z,101191.58
2022-09-21T19:51:56.493Z,101190.48
2022-09-21T19:54:47.192Z,101193.95
2022-09-21T19:57:34.294Z,101193.19
2022-09-21T20:00:03.867Z,101193.64
2022-09-21T20:02:40.116Z,101197.80
2022-09-21T20:05:33.772Z,101200.36
2022-09-21T20:08:24.173Z,101204.00
2022-09-21T20:14:45.065Z,101204.98
2022-09-21T20:17:18.015Z,101208.61
2022-09-21T20:20:15.377Z,101207.33
2022-09-21T20:22:42.380Z,101209.38
2022-09-21T20:25:09.452Z,101204.09
2022-09-21T20:27:44.510Z,101207.02
2022-09-21T20:30:16.604Z,101202.77
2022-09-21T20:32:46.155Z,101205.36
2022-09-21T20:35:17.510Z,101196.56
2022-09-21T20:37:44.709Z,101197.02
2022-09-21T20:40:12.924Z,101198.36
2022-09-21T20:42:44.358Z,101206.75
2022-09-21T20:45:12.667Z,101199.50
2022-09-21T20:47:39.662Z,101199.27
2022-09-21T20:50:12.253Z,101202.07
2022-09-21T20:53:01.933Z,101199.21
2022-09-21T20:55:28.758Z,101203.36
2022-09-21T20:57:55.647Z,101205.59
2022-09-21T21:00:22.483Z,101199.05
2022-09-21T21:02:49.379Z,101202.66
2022-09-21T21:05:18.096Z,101209.27
2022-09-21T21:07:44.989Z,101206.96
2022-09-21T21:10:16.165Z,101205.20
2022-09-21T21:12:43.246Z,101202.00
2022-09-21T21:15:12.098Z,101199.14
2022-09-21T21:17:40.203Z,101195.92
2022-09-21T21:20:08.267Z,101199.54
2022-09-21T21:22:35.698Z,101196.34
2022-09-21T21:25:03.167Z,101199.48
2022-09-21T21:27:30.501Z,101196.83
2022-09-21T21:29:58.033Z,101194.19
2022-09-21T21:32:26.140Z,101198.54
2022-09-21T21:34:54.544Z,101205.14
2022-09-21T21:37:25.161Z,101202.64
2022-09-21T21:39:52.953Z,101201.55
2022-09-21T21:42:22.109Z,101203.77
2022-09-21T21:44:50.278Z,101206.73
2022-09-21T21:50:06.069Z,101209.42
2022-09-21T21:52:32.900Z,101210.06
2022-09-21T21:54:59.594Z,101206.10
2022-09-21T21:57:26.492Z,101201.83
2022-09-21T21:59:53.232Z,101200.55
2022-09-21T22:02:21.746Z,101200.02
2022-09-21T22:06:22.401Z,101196.33
2022-09-21T22:12:25.214Z,101196.31
2022-09-21T22:15:24.227Z,101201.34
2022-09-21T22:21:27.313Z,101197.17
2022-09-21T22:24:05.482Z,101199.60
2022-09-21T22:34:11.418Z,101208.60
2022-09-21T22:34:39.845Z,101208.50
2022-09-21T22:42:13.042Z,101212.27
2022-09-21T22:45:39.220Z,101211.05
2022-09-21T22:49:15.102Z,101212.44
2022-09-21T22:51:19.833Z,101221.48
2022-09-21T22:53:50.635Z,101221.14
2022-09-21T22:56:23.914Z,101221.61
2022-09-21T22:59:10.213Z,101223.83
2022-09-21T23:01:40.169Z,101223.42
2022-09-21T23:04:09.743Z,101218.83
2022-09-21T23:06:39.002Z,101224.20
2022-09-21T23:09:09.309Z,101222.07
2022-09-21T23:11:41.574Z,101221.13
2022-09-21T23:14:10.148Z,101224.05
2022-09-21T23:16:58.395Z,101219.60
2022-09-21T23:19:56.673Z,101218.24
2022-09-21T23:22:23.887Z,101217.13
2022-09-21T23:24:50.644Z,101219.15
2022-09-21T23:27:17.364Z,101215.98
2022-09-21T23:29:44.149Z,101212.98
2022-09-21T23:32:10.867Z,101209.63
2022-09-21T23:34:37.584Z,101206.80
2022-09-21T23:37:04.431Z,101209.52
2022-09-21T23:39:31.439Z,101205.95
2022-09-21T23:41:58.400Z,101209.02
2022-09-21T23:44:25.446Z,101209.29
2022-09-21T23:46:52.289Z,101214.45
2022-09-21T23:49:19.087Z,101213.88
2022-09-21T23:51:45.897Z,101213.65
2022-09-21T23:54:14.667Z,101220.55
2022-09-21T23:56:42.166Z,101218.88
2022-09-21T23:59:09.403Z,101218.27
